Donahue, Iowa
Current Conditions -  °F | °C
As of 9:52 AM on Tuesday 21 Oct 2014 (Local Time) from KDVN Reporting Station
Clear Clear  
Wind Chill: 50°   Ceiling: Unl
Heat Index: 50°   Visibility: 10mi
Dew Point: 41°   Wind: 12mph
Humidity: 71%   Direction: 50°NE
Pressure: 30.2"   Gusts: NA
Location:  41.69°N, 90.68°W
Report Text: KDVN 211452Z AUTO 05010KT 10SM CLR 10/05 A3020 RMK AO2 SLP229 T01000050 51019 TSNO
Loading
Personal Weather Stations






























Interactive Weather Map
Tropical Storm Tracking
New forecast layout! Learn more

10-Day Weather Forecast

Advertisements
Track Severe Weather on mobile